Time;durP1;ratioP1;P1;durP2;ratioP2;P2;SDS_P1;SDS_P2;PMS_P1;PMS_P2;Temp;Humidity;BMP_temperature;BMP_pressure;BME280_temperature;BME280_humidity;BME280_pressure;Samples;Min_cycle;Max_cycle;Signal;HPM_P1;HPM_P2
2024/03/29 00:09:16;;;;;;;4.3;1.7;;;;;;;7.64;88.66;97378.333333333;;;;
2024/03/29 00:20:16;;;;;;;4.1;1.9;;;;;;;7.53;87.92;97396.666666667;;;;
2024/03/29 00:31:16;;;;;;;4.1;1.9;;;;;;;7.51;87.24;97415;;;;
2024/03/29 00:41:17;;;;;;;4.1;1.9;;;;;;;7.49;87.03;97426.666666667;;;;
2024/03/29 00:52:16;;;;;;;3.2;1.7;;;;;;;7.47;87.09;97445;;;;
2024/03/29 01:02:16;;;;;;;3.2;1.7;;;;;;;7.44;86.84;97476.666666667;;;;
2024/03/29 01:13:16;;;;;;;3.2;1.7;;;;;;;7.37;86.59;97501.666666667;;;;
2024/03/29 01:24:18;;;;;;;4.4;2;;;;;;;7.34;86.21;97508.333333333;;;;
2024/03/29 01:35:16;;;;;;;4.4;2;;;;;;;7.19;86.24;97523.333333333;;;;
2024/03/29 01:46:16;;;;;;;4.4;2;;;;;;;7.04;86.7;97548.333333333;;;;
2024/03/29 01:56:16;;;;;;;7.7;3.4;;;;;;;6.83;86.2;97578.333333333;;;;
2024/03/29 02:07:16;;;;;;;7.7;3.4;;;;;;;6.61;86.96;97620;;;;
2024/03/29 02:17:16;;;;;;;7.7;3.4;;;;;;;6.41;87.23;97641.666666667;;;;
2024/03/29 02:27:17;;;;;;;4.7;2.6;;;;;;;6.28;86.8;97670;;;;
2024/03/29 02:38:17;;;;;;;4.7;2.6;;;;;;;6.31;85.04;97700;;;;
2024/03/29 02:49:16;;;;;;;2.5;1.1;;;;;;;6.43;83.58;97700;;;;
2024/03/29 02:59:16;;;;;;;2.5;1.1;;;;;;;6.39;83.01;97711.666666667;;;;
2024/03/29 03:20:17;;;;;;;1.7;0.9;;;;;;;6.29;82.07;97770;;;;
2024/03/29 03:30:17;;;;;;;1.7;0.9;;;;;;;6.22;82.07;97783.333333333;;;;
2024/03/29 03:41:17;;;;;;;1.7;0.9;;;;;;;6.02;81.77;97780;;;;
2024/03/29 03:52:17;;;;;;;3.9;1.2;;;;;;;5.64;82.73;97785;;;;
2024/03/29 04:02:17;;;;;;;3.9;1.2;;;;;;;5.48;83.85;97790;;;;
2024/03/29 04:12:17;;;;;;;3.9;1.2;;;;;;;5.38;83.9;97816.666666667;;;;
2024/03/29 04:23:17;;;;;;;2.1;0.9;;;;;;;5.37;83.84;97816.666666667;;;;
2024/03/29 04:34:17;;;;;;;2.1;0.9;;;;;;;5.45;84;97831.666666667;;;;
2024/03/29 04:45:17;;;;;;;2.1;0.9;;;;;;;5.47;84.12;97833.333333333;;;;
2024/03/29 04:55:17;;;;;;;1.9;0.7;;;;;;;5.56;83.87;97843.333333333;;;;
2024/03/29 05:06:17;;;;;;;1.9;0.7;;;;;;;5.81;83.1;97861.666666667;;;;
2024/03/29 05:16:17;;;;;;;1.9;0.7;;;;;;;6;82.54;97841.666666667;;;;
2024/03/29 05:26:17;;;;;;;2;0.7;;;;;;;6.26;81.47;97855;;;;
2024/03/29 05:36:18;;;;;;;2;0.7;;;;;;;6.65;79.87;97885;;;;
2024/03/29 05:46:17;;;;;;;2;0.7;;;;;;;7;78.6;97896.666666667;;;;
2024/03/29 05:57:17;;;;;;;2.7;1;;;;;;;7.42;77.84;97896.666666667;;;;
2024/03/29 06:07:17;;;;;;;2.7;1;;;;;;;7.83;75.81;97908.333333333;;;;
2024/03/29 06:17:24;;;;;;;1.7;0.8;;;;;;;8.3;73.51;97915;;;;
2024/03/29 06:28:17;;;;;;;1.7;0.8;;;;;;;8.84;72.06;97930;;;;
2024/03/29 06:38:17;;;;;;;1.7;0.8;;;;;;;9.23;71.99;97900;;;;
2024/03/29 06:48:17;;;;;;;2.6;0.9;;;;;;;9.64;68.07;97901.666666667;;;;
2024/03/29 06:59:17;;;;;;;2.6;0.9;;;;;;;10.2;65.75;97905;;;;
2024/03/29 07:10:17;;;;;;;2.6;0.9;;;;;;;10.69;62.48;97931.666666667;;;;
2024/03/29 07:21:17;;;;;;;1.6;0.6;;;;;;;11;61.87;97901.666666667;;;;
2024/03/29 07:31:17;;;;;;;1.6;0.6;;;;;;;11.42;60.48;97885;;;;
2024/03/29 07:41:17;;;;;;;1.6;0.6;;;;;;;11.63;58.8;97868.333333333;;;;
2024/03/29 07:52:19;;;;;;;1.3;0.6;;;;;;;12.18;54.73;97911.666666667;;;;
2024/03/29 08:02:17;;;;;;;1.3;0.6;;;;;;;12.55;54.16;97921.666666667;;;;
2024/03/29 08:13:20;;;;;;;1.3;0.6;;;;;;;13;53.6;97935;;;;
2024/03/29 08:23:17;;;;;;;1.9;0.9;;;;;;;13.16;51.8;97946.666666667;;;;
2024/03/29 08:34:17;;;;;;;1.9;0.9;;;;;;;13.38;50.94;97946.666666667;;;;
2024/03/29 08:44:17;;;;;;;1.9;0.9;;;;;;;14.04;49.87;97951.666666667;;;;
2024/03/29 08:54:17;;;;;;;1.5;0.8;;;;;;;13.95;45.73;97946.666666667;;;;
2024/03/29 09:05:17;;;;;;;1.5;0.8;;;;;;;14.4;46.62;97951.666666667;;;;
2024/03/29 09:15:17;;;;;;;1.5;0.8;;;;;;;14.58;44.56;97960;;;;
2024/03/29 09:26:17;;;;;;;1.5;0.7;;;;;;;14.92;43.62;97963.333333333;;;;
2024/03/29 09:36:17;;;;;;;1.5;0.7;;;;;;;15.18;39.16;97960;;;;
2024/03/29 09:46:17;;;;;;;1.5;0.7;;;;;;;15.46;41.46;97966.666666667;;;;
2024/03/29 09:56:17;;;;;;;2.4;0.7;;;;;;;15.8;42.5;97960;;;;
2024/03/29 10:07:17;;;;;;;2.4;0.7;;;;;;;15.9;38.29;97948.333333333;;;;
2024/03/29 10:18:19;;;;;;;1.1;0.5;;;;;;;16.43;39.18;97933.333333333;;;;
2024/03/29 10:28:17;;;;;;;1.1;0.5;;;;;;;16.66;40.4;97946.666666667;;;;
2024/03/29 10:39:17;;;;;;;1.1;0.5;;;;;;;17.06;40.35;97940;;;;
2024/03/29 10:50:17;;;;;;;2.2;0.6;;;;;;;16.97;39.24;97931.666666667;;;;
2024/03/29 11:01:17;;;;;;;2.2;0.6;;;;;;;17.45;37.45;97918.333333333;;;;
2024/03/29 11:11:17;;;;;;;2.2;0.6;;;;;;;17.21;34.79;97898.333333333;;;;
2024/03/29 11:22:17;;;;;;;1.2;0.5;;;;;;;17.4;38.28;97870;;;;
2024/03/29 11:32:17;;;;;;;1.2;0.5;;;;;;;17.5;37.95;97861.666666667;;;;
2024/03/29 11:43:17;;;;;;;1.2;0.5;;;;;;;17.83;38.21;97853.333333333;;;;
2024/03/29 11:53:17;;;;;;;0.9;0.5;;;;;;;17.91;37.25;97841.666666667;;;;
2024/03/29 12:03:17;;;;;;;0.9;0.5;;;;;;;17.98;36.36;97825;;;;
2024/03/29 12:14:17;;;;;;;0.9;0.5;;;;;;;18.07;36.85;97788.333333333;;;;
2024/03/29 12:24:17;;;;;;;2.7;0.6;;;;;;;18.41;35.56;97791.666666667;;;;
2024/03/29 12:34:17;;;;;;;2.7;0.6;;;;;;;18.51;37.69;97765;;;;
2024/03/29 12:45:17;;;;;;;2.7;0.6;;;;;;;18.59;36.98;97780;;;;
2024/03/29 12:56:17;;;;;;;1.5;0.6;;;;;;;18.75;36.49;97781.666666667;;;;
2024/03/29 13:06:17;;;;;;;1.5;0.6;;;;;;;18.83;40.64;97750;;;;
2024/03/29 13:17:17;;;;;;;1.8;0.5;;;;;;;19.12;38.14;97758.333333333;;;;
2024/03/29 13:27:17;;;;;;;1.8;0.5;;;;;;;19.41;40.11;97751.666666667;;;;
2024/03/29 13:37:17;;;;;;;1.8;0.5;;;;;;;19.36;38.64;97761.666666667;;;;
2024/03/29 13:48:17;;;;;;;1.7;0.7;;;;;;;19.43;38.39;97755;;;;
2024/03/29 13:58:17;;;;;;;1.7;0.7;;;;;;;19.6;40.54;97758.333333333;;;;
2024/03/29 14:08:17;;;;;;;1.7;0.7;;;;;;;19.4;37.41;97756.666666667;;;;
2024/03/29 14:19:17;;;;;;;5;1.1;;;;;;;19.54;38.47;97746.666666667;;;;
2024/03/29 14:29:18;;;;;;;5;1.1;;;;;;;19.38;38.25;97743.333333333;;;;
2024/03/29 14:40:18;;;;;;;5;1.1;;;;;;;19.47;39.39;97735;;;;
2024/03/29 14:50:18;;;;;;;3.2;1.3;;;;;;;19.47;42.27;97758.333333333;;;;
2024/03/29 15:00:17;;;;;;;3.2;1.3;;;;;;;19.32;41.09;97775;;;;
2024/03/29 15:11:17;;;;;;;3.2;1.3;;;;;;;19.28;42.46;97778.333333333;;;;
2024/03/29 15:21:17;;;;;;;3.2;1.1;;;;;;;19.82;41.33;97775;;;;
2024/03/29 15:32:17;;;;;;;3.2;1.1;;;;;;;21.59;39.7;97761.666666667;;;;
2024/03/29 15:43:17;;;;;;;3.2;1.1;;;;;;;21.36;38.74;97771.666666667;;;;
2024/03/29 15:53:17;;;;;;;3.9;1.3;;;;;;;21.22;38.51;97766.666666667;;;;
2024/03/29 16:04:17;;;;;;;3.9;1.3;;;;;;;19.99;41.11;97773.333333333;;;;
2024/03/29 16:14:17;;;;;;;3.9;1.3;;;;;;;20.29;40.14;97756.666666667;;;;
2024/03/29 16:24:17;;;;;;;3;1;;;;;;;20.28;40.97;97763.333333333;;;;
2024/03/29 16:35:17;;;;;;;3;1;;;;;;;19.75;41.38;97780;;;;
2024/03/29 16:45:17;;;;;;;3;1;;;;;;;18.3;44.25;97781.666666667;;;;
2024/03/29 16:55:17;;;;;;;3.4;1.2;;;;;;;17.34;45.55;97780;;;;
2024/03/29 17:06:17;;;;;;;3.4;1.2;;;;;;;16.08;49.81;97773.333333333;;;;
2024/03/29 17:17:17;;;;;;;8.9;4.7;;;;;;;15.14;52.32;97760;;;;
2024/03/29 17:28:17;;;;;;;8.9;4.7;;;;;;;14.48;53.9;97766.666666667;;;;
2024/03/29 17:39:17;;;;;;;8.9;4.7;;;;;;;13.92;58.23;97763.333333333;;;;
2024/03/29 17:50:17;;;;;;;10;6.5;;;;;;;13.29;59.51;97771.666666667;;;;
2024/03/29 18:01:17;;;;;;;10;6.5;;;;;;;12.81;59.33;97778.333333333;;;;
2024/03/29 18:11:17;;;;;;;10;6.5;;;;;;;12.39;62.1;97773.333333333;;;;
2024/03/29 18:21:17;;;;;;;11.7;7.4;;;;;;;12.12;65;97786.666666667;;;;
2024/03/29 18:31:17;;;;;;;11.7;7.4;;;;;;;11.82;64.45;97800;;;;
2024/03/29 18:42:17;;;;;;;11.7;7.4;;;;;;;11.37;65.81;97788.333333333;;;;
2024/03/29 18:52:17;;;;;;;12.5;6.4;;;;;;;11.13;67.45;97781.666666667;;;;
2024/03/29 19:03:17;;;;;;;12.5;6.4;;;;;;;11.33;70.04;97783.333333333;;;;
2024/03/29 19:14:17;;;;;;;12.5;6.4;;;;;;;11.49;70.23;97775;;;;
2024/03/29 19:24:17;;;;;;;12;5;;;;;;;11.49;69.58;97778.333333333;;;;
2024/03/29 19:34:17;;;;;;;12;5;;;;;;;11.52;70.7;97776.666666667;;;;
2024/03/29 19:45:17;;;;;;;12;5;;;;;;;11.5;70.19;97763.333333333;;;;
2024/03/29 19:55:19;;;;;;;11.2;4.7;;;;;;;11.49;70.87;97766.666666667;;;;
2024/03/29 20:06:17;;;;;;;11.2;4.7;;;;;;;11.48;71.69;97771.666666667;;;;
2024/03/29 20:16:17;;;;;;;11.2;4.7;;;;;;;11.34;71.79;97775;;;;
2024/03/29 20:26:17;;;;;;;10.1;5.6;;;;;;;11.46;72.25;97780;;;;
2024/03/29 20:37:19;;;;;;;10.1;5.6;;;;;;;11.64;72.41;97780;;;;
2024/03/29 20:48:17;;;;;;;11.6;6.8;;;;;;;11.72;72.18;97778.333333333;;;;
2024/03/29 20:58:17;;;;;;;11.6;6.8;;;;;;;11.78;72.05;97765;;;;
2024/03/29 21:08:17;;;;;;;11.6;6.8;;;;;;;11.93;72.71;97753.333333333;;;;
2024/03/29 21:19:17;;;;;;;8.6;4.6;;;;;;;12;71.9;97758.333333333;;;;
2024/03/29 21:29:17;;;;;;;8.6;4.6;;;;;;;11.89;71.63;97755;;;;
2024/03/29 21:40:17;;;;;;;8.6;4.6;;;;;;;11.51;72.47;97756.666666667;;;;
2024/03/29 21:50:17;;;;;;;11.3;5.7;;;;;;;11.24;74.06;97766.666666667;;;;
2024/03/29 22:01:20;;;;;;;11.3;5.7;;;;;;;11.01;73.66;97751.666666667;;;;
2024/03/29 22:11:17;;;;;;;11.3;5.7;;;;;;;10.84;74.26;97755;;;;
2024/03/29 22:21:17;;;;;;;9.6;5;;;;;;;10.49;74.67;97768.333333333;;;;
2024/03/29 22:32:17;;;;;;;9.6;5;;;;;;;10.16;75.87;97750;;;;
2024/03/29 22:42:17;;;;;;;9.6;5;;;;;;;9.91;76.39;97755;;;;
2024/03/29 22:52:17;;;;;;;11.4;6.2;;;;;;;9.65;78.42;97760;;;;
2024/03/29 23:03:17;;;;;;;11.4;6.2;;;;;;;9.51;79.49;97763.333333333;;;;
2024/03/29 23:14:17;;;;;;;11.4;6.2;;;;;;;9.35;81.51;97760;;;;
2024/03/29 23:24:17;;;;;;;12.5;7.2;;;;;;;9.29;80.55;97760;;;;
2024/03/29 23:35:17;;;;;;;12.5;7.2;;;;;;;9.27;83.39;97750;;;;
2024/03/29 23:46:17;;;;;;;12.5;7.2;;;;;;;9.39;81.92;97740;;;;
2024/03/29 23:57:17;;;;;;;10.1;4.6;;;;;;;9.49;81.66;97740;;;;
